Time;durP1;ratioP1;P1;durP2;ratioP2;P2;SDS_P1;SDS_P2;PMS_P1;PMS_P2;Temp;Humidity;BMP_temperature;BMP_pressure;BME280_temperature;BME280_humidity;BME280_pressure;Samples;Min_cycle;Max_cycle;Signal;HPM_P1;HPM_P2
2021/07/28 00:00:29;;;;;;;13.63;12.23;;;;;;;17.64;94.48;100957.75;5068581;28;20028;-84
2021/07/28 00:02:54;;;;;;;14.52;12.27;;;;;;;17.65;94.55;100954.06;5088081;28;20043;-83
2021/07/28 00:05:20;;;;;;;13.50;10.88;;;;;;;17.63;94.67;100954.28;5097293;28;20041;-84
2021/07/28 00:07:46;;;;;;;12.38;10.88;;;;;;;17.61;95.12;100953.66;5086408;28;20423;-81
2021/07/28 00:10:12;;;;;;;13.43;12.10;;;;;;;17.61;95.17;100952.81;5060562;28;20023;-83
2021/07/28 00:12:37;;;;;;;13.27;11.38;;;;;;;17.59;94.88;100949.53;5090318;28;20027;-80
2021/07/28 00:15:04;;;;;;;13.13;11.15;;;;;;;17.63;94.76;100956.94;5069241;28;20023;-83
2021/07/28 00:17:29;;;;;;;14.70;11.18;;;;;;;17.65;94.86;100954.06;5091212;28;20032;-84
2021/07/28 00:25:05;;;;;;;12.38;10.80;;;;;;;17.61;94.73;100936.88;5088295;28;20122;-82
2021/07/28 00:27:31;;;;;;;12.35;11.02;;;;;;;17.50;94.41;100941.69;5074842;28;20091;-83
2021/07/28 00:29:57;;;;;;;13.38;11.05;;;;;;;17.49;94.65;100945.34;5073245;28;20063;-83
2021/07/28 00:32:22;;;;;;;12.45;10.32;;;;;;;17.49;95.29;100953.28;5092300;28;20565;-82
2021/07/28 00:34:48;;;;;;;13.10;10.75;;;;;;;17.38;95.45;100939.69;5076500;28;20130;-81
2021/07/28 00:37:13;;;;;;;12.07;9.65;;;;;;;17.31;96.11;100939.63;5064030;28;20493;-82
2021/07/28 00:39:39;;;;;;;11.90;10.18;;;;;;;17.14;96.71;100931.06;5075512;28;20068;-81
2021/07/28 00:42:04;;;;;;;12.65;9.90;;;;;;;17.19;97.19;100935.81;5074330;28;20081;-81
2021/07/28 00:44:30;;;;;;;13.20;9.80;;;;;;;17.07;97.58;100932.81;5076068;28;21576;-83
2021/07/28 00:46:55;;;;;;;14.63;10.13;;;;;;;17.16;96.53;100936.16;5076745;28;20523;-81
2021/07/28 00:49:23;;;;;;;12.52;9.82;;;;;;;17.23;95.85;100934.44;5077369;28;20055;-83
2021/07/28 00:51:49;;;;;;;12.93;10.18;;;;;;;17.24;95.46;100926.28;5085336;28;20024;-82
2021/07/28 00:54:15;;;;;;;10.02;9.02;;;;;;;17.25;95.36;100927.09;5060914;28;20081;-82
2021/07/28 00:56:42;;;;;;;11.18;9.60;;;;;;;17.30;95.34;100928.19;5069764;28;20067;-85
2021/07/28 00:59:09;;;;;;;12.45;8.70;;;;;;;17.28;95.69;100921.44;5085470;28;20036;-83
2021/07/28 01:01:36;;;;;;;9.45;8.43;;;;;;;17.33;96.17;100932.31;5071837;28;20035;-83
2021/07/28 01:04:02;;;;;;;12.05;9.15;;;;;;;17.29;95.91;100923.06;5057574;28;20023;-82
2021/07/28 01:06:27;;;;;;;11.32;8.90;;;;;;;17.18;96.35;100908.50;5076719;28;20046;-83
2021/07/28 01:08:54;;;;;;;10.52;9.35;;;;;;;17.16;96.67;100918.47;5092346;28;20118;-85
2021/07/28 01:11:25;;;;;;;10.50;8.35;;;;;;;17.09;96.81;100913.06;5076132;28;20489;-81
2021/07/28 01:13:51;;;;;;;10.15;8.70;;;;;;;17.00;97.12;100906.22;5051938;28;20030;-83
2021/07/28 01:16:20;;;;;;;10.02;8.50;;;;;;;16.98;97.44;100904.78;5097885;28;20036;-85
2021/07/28 01:18:46;;;;;;;10.45;8.57;;;;;;;16.86;97.66;100899.94;5076064;28;20024;-83
2021/07/28 01:21:12;;;;;;;11.27;8.90;;;;;;;16.87;98.14;100900.75;5058516;28;20076;-84
2021/07/28 01:23:40;;;;;;;10.23;8.23;;;;;;;16.80;98.62;100905.94;5064145;28;20024;-85
2021/07/28 01:26:06;;;;;;;10.23;9.07;;;;;;;16.86;98.36;100904.44;5068132;28;20031;-80
2021/07/28 01:28:34;;;;;;;11.20;8.60;;;;;;;16.87;98.43;100903.41;5087889;28;20444;-81
2021/07/28 01:31:13;;;;;;;9.55;8.38;;;;;;;16.96;97.12;100904.13;5057892;28;20130;-81
2021/07/28 01:33:49;;;;;;;10.00;8.43;;;;;;;16.91;97.10;100894.06;5057269;28;20090;-81
2021/07/28 01:36:20;;;;;;;12.48;8.88;;;;;;;16.84;96.47;100885.22;5090955;28;20067;-81
2021/07/28 01:38:47;;;;;;;10.40;8.55;;;;;;;16.83;97.68;100895.00;5060458;28;20023;-81
2021/07/28 01:41:13;;;;;;;9.00;8.10;;;;;;;16.79;97.64;100891.06;5056594;28;20047;-82
2021/07/28 01:43:39;;;;;;;10.10;8.48;;;;;;;16.73;97.80;100886.50;5057387;28;20085;-84
2021/07/28 01:46:06;;;;;;;9.25;8.32;;;;;;;16.71;97.96;100891.97;5076525;28;20032;-85
2021/07/28 01:48:32;;;;;;;11.77;8.90;;;;;;;16.68;98.10;100889.69;5060072;28;20035;-82
2021/07/28 01:50:58;;;;;;;12.57;8.70;;;;;;;16.69;97.81;100888.69;5060058;28;20036;-82
2021/07/28 01:53:24;;;;;;;13.02;8.57;;;;;;;16.69;98.31;100893.97;5059735;28;20031;-84
2021/07/28 01:55:52;;;;;;;12.23;9.52;;;;;;;16.77;97.96;100894.91;5082797;28;20441;-87
2021/07/28 01:58:18;;;;;;;11.55;9.38;;;;;;;16.76;98.11;100891.41;5088213;28;20036;-84
2021/07/28 02:00:44;;;;;;;13.80;9.30;;;;;;;16.70;98.41;100897.44;5058248;28;20038;-81
2021/07/28 02:03:10;;;;;;;11.43;9.30;;;;;;;16.60;98.75;100889.78;5076283;28;20028;-83
2021/07/28 02:05:37;;;;;;;10.38;9.32;;;;;;;16.60;98.98;100889.78;5076291;28;20027;-82
2021/07/28 02:08:05;;;;;;;10.98;9.07;;;;;;;16.62;99.07;100890.41;5059695;28;20039;-85
2021/07/28 02:10:32;;;;;;;11.00;8.85;;;;;;;16.64;99.06;100884.94;5059958;28;20054;-83
2021/07/28 02:12:58;;;;;;;10.95;9.00;;;;;;;16.63;99.31;100873.53;5071691;28;20036;-84
2021/07/28 02:15:24;;;;;;;10.48;8.65;;;;;;;16.68;99.02;100876.44;5071056;28;20054;-83
2021/07/28 02:17:51;;;;;;;10.48;8.70;;;;;;;16.71;98.79;100888.50;5060060;28;20492;-83
2021/07/28 02:20:17;;;;;;;11.35;9.10;;;;;;;16.74;98.85;100883.66;5097629;28;20027;-83
2021/07/28 02:22:46;;;;;;;13.73;9.55;;;;;;;16.76;98.28;100877.34;5079495;28;20446;-83
2021/07/28 02:25:13;;;;;;;11.50;9.15;;;;;;;16.85;98.49;100885.03;5079400;28;20058;-84
2021/07/28 02:27:39;;;;;;;11.27;9.43;;;;;;;16.91;97.99;100880.84;5084649;28;20116;-83
2021/07/28 02:30:05;;;;;;;11.98;9.52;;;;;;;16.93;97.75;100882.31;5076629;28;20028;-81
2021/07/28 02:32:31;;;;;;;9.60;8.55;;;;;;;16.89;97.40;100861.66;5079198;28;20111;-80
2021/07/28 02:34:57;;;;;;;12.52;9.32;;;;;;;16.95;97.29;100865.38;5096316;28;20027;-83
2021/07/28 02:37:22;;;;;;;13.27;9.38;;;;;;;16.98;97.69;100873.78;5071815;28;20032;-83
2021/07/28 02:39:48;;;;;;;10.70;9.18;;;;;;;16.94;97.51;100869.88;5080222;28;20036;-80
2021/07/28 02:42:13;;;;;;;12.77;9.25;;;;;;;16.96;97.37;100869.69;5080335;28;20031;-84
2021/07/28 02:44:39;;;;;;;12.45;8.80;;;;;;;16.93;97.95;100865.56;5079449;28;20023;-87
2021/07/28 02:47:04;;;;;;;10.50;9.27;;;;;;;16.82;97.84;100874.84;5096364;28;20023;-86
2021/07/28 02:49:30;;;;;;;11.45;9.30;;;;;;;16.77;98.17;100868.41;5079726;28;20538;-82
2021/07/28 02:51:55;;;;;;;11.57;9.30;;;;;;;16.71;98.28;100860.19;5051058;28;20135;-83
2021/07/28 02:54:22;;;;;;;10.00;8.75;;;;;;;16.70;98.11;100858.53;5069386;28;20089;-85
2021/07/28 02:56:48;;;;;;;9.93;8.90;;;;;;;16.70;98.74;100870.97;5083408;28;20063;-82
2021/07/28 02:59:14;;;;;;;11.98;8.15;;;;;;;16.67;98.79;100864.22;5109157;28;20429;-84
2021/07/28 03:01:39;;;;;;;11.10;8.57;;;;;;;16.64;98.55;100867.22;5079982;28;20123;-85
2021/07/28 03:04:05;;;;;;;9.75;8.75;;;;;;;16.61;99.02;100867.56;5080950;28;20110;-84
2021/07/28 03:06:31;;;;;;;12.75;9.18;;;;;;;16.57;99.45;100858.34;5059993;28;20032;-85
2021/07/28 03:08:57;;;;;;;10.88;8.90;;;;;;;16.57;99.86;100865.50;5076899;28;20059;-84
2021/07/28 03:11:22;;;;;;;13.63;8.98;;;;;;;16.53;100.00;100863.19;5079050;28;20047;-83
2021/07/28 03:13:48;;;;;;;10.30;9.20;;;;;;;16.59;99.76;100868.78;5075554;28;20027;-78
2021/07/28 03:16:13;;;;;;;14.85;9.90;;;;;;;16.65;99.06;100868.03;5062746;28;20405;-81
2021/07/28 03:18:39;;;;;;;12.13;9.68;;;;;;;16.71;97.79;100867.31;5049685;28;20028;-85
2021/07/28 03:21:05;;;;;;;12.75;9.25;;;;;;;16.77;97.46;100865.75;5079737;28;20080;-85
2021/07/28 03:23:30;;;;;;;11.10;8.98;;;;;;;16.82;97.51;100855.41;5076555;28;20501;-83
2021/07/28 03:25:56;;;;;;;10.70;9.15;;;;;;;16.81;97.51;100851.94;5095624;28;20035;-85
2021/07/28 03:28:22;;;;;;;11.73;9.00;;;;;;;16.88;97.10;100860.03;5062609;28;20679;-85
2021/07/28 03:30:49;;;;;;;13.48;9.65;;;;;;;16.84;97.14;100848.13;5060721;28;20043;-85
2021/07/28 03:33:16;;;;;;;15.38;8.75;;;;;;;16.91;97.41;100857.00;5075889;28;20028;-83
2021/07/28 03:35:42;;;;;;;11.32;9.18;;;;;;;16.80;98.09;100847.69;5069045;28;20036;-83
2021/07/28 03:38:07;;;;;;;14.50;9.30;;;;;;;16.76;98.00;100856.16;5113026;28;20037;-83
2021/07/28 03:40:33;;;;;;;12.48;8.88;;;;;;;16.71;98.32;100852.25;5079246;28;20032;-83
2021/07/28 03:42:58;;;;;;;10.77;8.55;;;;;;;16.60;98.98;100843.94;5096349;28;20046;-84
2021/07/28 03:45:24;;;;;;;10.45;8.30;;;;;;;16.76;98.56;100866.75;5079236;28;20032;-84
2021/07/28 03:47:49;;;;;;;15.93;8.63;;;;;;;16.71;98.97;100862.03;5108517;28;20023;-81
2021/07/28 03:50:15;;;;;;;11.57;9.23;;;;;;;16.75;98.13;100860.66;5078778;28;20122;-83
2021/07/28 03:52:40;;;;;;;13.10;8.70;;;;;;;16.77;97.47;100873.72;5079521;28;20032;-82
2021/07/28 03:55:07;;;;;;;10.93;8.25;;;;;;;16.69;97.13;100842.84;5075744;28;20020;-84
2021/07/28 03:57:33;;;;;;;10.65;8.30;;;;;;;16.82;96.27;100871.31;5079523;28;20131;-85
2021/07/28 03:59:58;;;;;;;11.02;8.25;;;;;;;16.79;96.47;100859.25;5070684;28;20118;-84
2021/07/28 04:02:24;;;;;;;10.35;8.07;;;;;;;16.81;96.77;100853.78;5078689;28;20397;-85
2021/07/28 04:04:49;;;;;;;10.10;8.50;;;;;;;16.79;97.07;100853.97;5061946;28;20031;-82
2021/07/28 04:07:14;;;;;;;10.75;8.13;;;;;;;16.76;97.86;100853.50;5075265;28;20397;-82
2021/07/28 04:09:40;;;;;;;11.23;8.43;;;;;;;16.70;97.51;100845.28;5076670;28;20081;-86
2021/07/28 04:12:06;;;;;;;12.18;8.02;;;;;;;16.76;96.86;100859.63;5095076;28;20520;-84
2021/07/28 04:14:32;;;;;;;11.13;7.70;;;;;;;16.78;96.93;100859.44;5078448;28;20028;-83
2021/07/28 04:16:57;;;;;;;10.02;7.78;;;;;;;16.80;96.26;100855.63;5059781;28;20036;-83
2021/07/28 04:19:23;;;;;;;11.55;7.60;;;;;;;16.78;96.52;100856.78;5050466;28;20031;-83
2021/07/28 04:21:48;;;;;;;11.68;8.02;;;;;;;16.83;94.96;100849.97;5095432;28;20054;-87
2021/07/28 04:24:13;;;;;;;16.30;8.65;;;;;;;16.80;95.72;100858.28;5083112;27;20053;-83
2021/07/28 04:26:39;;;;;;;9.98;7.53;;;;;;;16.86;95.33;100857.56;5096343;28;20107;-84
2021/07/28 04:29:04;;;;;;;10.30;7.28;;;;;;;16.84;95.49;100851.63;5076776;28;20498;-83
2021/07/28 04:31:30;;;;;;;9.30;7.57;;;;;;;16.84;95.47;100853.44;5093731;28;20037;-82
2021/07/28 04:33:55;;;;;;;9.65;7.72;;;;;;;16.82;95.86;100848.34;5073521;28;20024;-85
2021/07/28 04:36:21;;;;;;;9.80;7.47;;;;;;;16.75;96.08;100842.09;5059743;28;20039;-85
2021/07/28 04:38:46;;;;;;;8.15;7.22;;;;;;;16.73;96.12;100854.72;5058997;28;20043;-81
2021/07/28 04:41:12;;;;;;;9.18;7.47;;;;;;;16.66;96.64;100848.50;5094543;28;20036;-85
2021/07/28 04:43:37;;;;;;;13.00;8.00;;;;;;;16.61;96.37;100843.75;5058880;28;20382;-83
2021/07/28 04:46:03;;;;;;;10.30;7.90;;;;;;;16.54;96.59;100841.03;5092127;28;20050;-81
2021/07/28 04:48:30;;;;;;;10.15;7.65;;;;;;;16.58;96.49;100845.97;5095085;28;20039;-82
2021/07/28 04:50:57;;;;;;;11.27;8.10;;;;;;;16.57;96.61;100849.59;5066360;28;20036;-85
2021/07/28 04:53:28;;;;;;;12.63;8.40;;;;;;;16.61;96.32;100850.88;5054859;28;20032;-85
2021/07/28 04:55:57;;;;;;;11.63;7.68;;;;;;;16.64;96.56;100851.34;5060882;28;20044;-81
2021/07/28 04:58:23;;;;;;;10.75;8.05;;;;;;;16.72;96.14;100850.41;5065244;28;20039;-84
2021/07/28 05:00:49;;;;;;;9.88;8.27;;;;;;;16.77;95.10;100849.88;5076978;28;20035;-84
2021/07/28 05:03:15;;;;;;;9.88;7.35;;;;;;;16.77;95.31;100853.34;5085677;28;20024;-84
2021/07/28 05:05:41;;;;;;;11.65;8.02;;;;;;;16.83;95.47;100844.66;5078040;28;20453;-84
2021/07/28 05:08:08;;;;;;;11.48;8.23;;;;;;;16.81;95.14;100840.53;5083092;28;20118;-83
2021/07/28 05:10:33;;;;;;;10.68;8.32;;;;;;;16.83;94.60;100835.91;5078098;28;20068;-84
2021/07/28 05:12:59;;;;;;;17.10;8.63;;;;;;;16.76;94.94;100837.63;5061475;28;20031;-85
2021/07/28 05:15:24;;;;;;;12.15;8.18;;;;;;;16.77;95.06;100842.75;5077471;28;20126;-83
2021/07/28 05:17:50;;;;;;;11.35;8.23;;;;;;;16.81;95.01;100833.41;5093932;28;20540;-81
2021/07/28 05:20:19;;;;;;;15.63;8.70;;;;;;;16.94;94.71;100840.72;5092773;28;20084;-83
2021/07/28 05:22:45;;;;;;;9.75;8.00;;;;;;;17.02;94.15;100835.31;5077168;28;20531;-84
2021/07/28 05:25:11;;;;;;;12.25;9.00;;;;;;;17.18;93.62;100844.03;5077374;28;20038;-84
2021/07/28 05:27:37;;;;;;;13.07;8.85;;;;;;;17.39;92.18;100830.81;5060973;28;20035;-82
2021/07/28 05:30:04;;;;;;;12.63;8.20;;;;;;;17.54;91.40;100829.91;5049943;28;20032;-82
2021/07/28 05:32:29;;;;;;;10.65;7.70;;;;;;;17.78;90.91;100831.34;5084664;28;20039;-82
2021/07/28 05:34:55;;;;;;;12.30;8.10;;;;;;;18.03;89.47;100834.44;5071821;28;20047;-85
2021/07/28 05:37:21;;;;;;;13.05;8.13;;;;;;;18.27;88.41;100830.50;5090678;28;20406;-84
2021/07/28 05:39:46;;;;;;;11.95;8.60;;;;;;;18.38;87.48;100824.66;5077790;28;20045;-83
2021/07/28 05:42:12;;;;;;;9.48;7.88;;;;;;;18.53;86.64;100826.38;5077513;28;20032;-83
2021/07/28 05:44:37;;;;;;;9.73;7.95;;;;;;;18.57;86.17;100827.59;5059585;28;20096;-82
2021/07/28 05:47:03;;;;;;;9.80;7.95;;;;;;;18.34;85.76;100812.78;5063802;28;20036;-81
2021/07/28 05:49:28;;;;;;;14.77;7.93;;;;;;;18.30;87.25;100827.47;5078150;28;20036;-84
2021/07/28 05:51:54;;;;;;;11.50;8.50;;;;;;;18.17;87.12;100825.53;5061025;28;20115;-82
2021/07/28 05:54:21;;;;;;;13.13;8.27;;;;;;;18.09;88.07;100831.81;5078886;28;20040;-81
2021/07/28 05:56:46;;;;;;;12.88;8.40;;;;;;;18.09;87.86;100825.72;5078526;28;20043;-84
2021/07/28 05:59:12;;;;;;;11.15;8.60;;;;;;;18.13;87.78;100832.25;5045144;28;20051;-84
2021/07/28 06:01:37;;;;;;;11.65;7.90;;;;;;;18.14;87.68;100839.22;5045535;28;20039;-82
2021/07/28 06:04:03;;;;;;;12.80;8.80;;;;;;;18.15;87.98;100832.88;5046172;28;20470;-83
2021/07/28 06:06:28;;;;;;;12.10;8.50;;;;;;;18.23;87.71;100842.53;5115040;28;20066;-82
2021/07/28 06:08:55;;;;;;;12.05;8.38;;;;;;;18.24;87.66;100830.91;5081918;28;20396;-82
2021/07/28 06:11:21;;;;;;;11.65;7.55;;;;;;;18.31;87.42;100833.59;5065257;28;20050;-81
2021/07/28 06:13:46;;;;;;;10.38;8.05;;;;;;;18.39;87.85;100841.41;5093843;28;20481;-83
2021/07/28 06:16:12;;;;;;;12.18;7.85;;;;;;;18.40;87.55;100835.91;5081895;28;20050;-82
2021/07/28 06:18:37;;;;;;;11.60;8.13;;;;;;;18.43;86.62;100824.88;5081879;28;20103;-81
2021/07/28 06:21:03;;;;;;;12.52;8.75;;;;;;;18.64;86.30;100831.94;5061411;28;20209;-82
2021/07/28 06:23:29;;;;;;;12.68;7.88;;;;;;;18.79;85.53;100838.94;5086485;28;20083;-83
2021/07/28 06:25:55;;;;;;;11.30;7.32;;;;;;;18.95;85.45;100835.13;5078254;28;20036;-83
2021/07/28 06:28:21;;;;;;;10.60;7.78;;;;;;;19.16;84.30;100836.88;5093996;28;20035;-81
2021/07/28 06:30:49;;;;;;;9.65;7.75;;;;;;;19.32;82.87;100838.31;5070187;28;20032;-83
2021/07/28 06:33:15;;;;;;;13.48;8.10;;;;;;;19.42;82.06;100842.22;5092775;28;20039;-81
2021/07/28 06:35:40;;;;;;;12.45;7.78;;;;;;;19.61;81.09;100847.78;5075601;28;20032;-84
2021/07/28 06:38:06;;;;;;;12.55;7.68;;;;;;;19.78;79.45;100845.56;5090389;28;20489;-81
2021/07/28 06:40:32;;;;;;;12.27;7.53;;;;;;;19.84;79.96;100837.56;5064486;28;20510;-81
2021/07/28 06:42:58;;;;;;;12.63;6.80;;;;;;;20.08;79.53;100847.78;5080397;28;20123;-82
2021/07/28 06:45:23;;;;;;;12.60;7.10;;;;;;;20.16;78.70;100842.25;5080844;28;20031;-82
2021/07/28 06:47:49;;;;;;;11.90;7.00;;;;;;;20.03;78.48;100841.25;5081009;28;20080;-83
2021/07/28 06:50:14;;;;;;;9.00;6.40;;;;;;;19.91;78.80;100845.56;5080428;28;20058;-82
2021/07/28 06:52:40;;;;;;;9.65;6.40;;;;;;;19.83;79.63;100835.09;5088536;28;20106;-80
2021/07/28 06:55:06;;;;;;;9.07;6.82;;;;;;;19.82;78.74;100836.16;5080354;28;20107;-83
2021/07/28 06:57:31;;;;;;;9.95;6.35;;;;;;;19.79;79.01;100844.53;5077596;28;20047;-85
2021/07/28 06:59:57;;;;;;;10.57;5.78;;;;;;;19.81;76.40;100837.16;5081498;28;20027;-87
2021/07/28 07:02:23;;;;;;;8.40;6.10;;;;;;;19.83;76.15;100846.59;5061993;28;20058;-82
2021/07/28 07:04:48;;;;;;;9.68;5.25;;;;;;;19.84;76.81;100845.56;5077775;28;20286;-83
2021/07/28 07:07:14;;;;;;;7.03;5.40;;;;;;;19.91;76.62;100848.22;5076533;28;20089;-85
2021/07/28 07:09:39;;;;;;;7.70;5.22;;;;;;;19.96;76.87;100847.59;5083190;28;20031;-83
2021/07/28 07:12:05;;;;;;;10.10;5.65;;;;;;;20.15;75.66;100853.91;5082704;28;20058;-83
2021/07/28 07:14:30;;;;;;;8.70;5.32;;;;;;;20.25;76.27;100853.50;5064294;28;20020;-84
2021/07/28 07:16:57;;;;;;;8.15;5.15;;;;;;;20.27;77.47;100854.94;5060894;28;20043;-83
2021/07/28 07:19:22;;;;;;;10.88;5.63;;;;;;;20.21;75.72;100850.41;5064819;28;20424;-84
2021/07/28 07:21:48;;;;;;;14.10;5.60;;;;;;;20.01;75.98;100850.47;5073763;28;20089;-83
2021/07/28 07:24:13;;;;;;;9.85;6.45;;;;;;;19.83;76.29;100840.44;5083411;28;20040;-85
2021/07/28 07:26:39;;;;;;;5.97;5.38;;;;;;;19.66;78.79;100845.31;5058850;28;20057;-83
2021/07/28 07:29:06;;;;;;;10.40;5.22;;;;;;;19.53;79.81;100840.78;5063285;28;20038;-83
2021/07/28 07:31:32;;;;;;;7.38;5.38;;;;;;;19.58;79.84;100837.53;5061673;28;20044;-85
2021/07/28 07:33:57;;;;;;;10.77;4.93;;;;;;;19.91;79.19;100839.41;5111736;28;20546;-82
2021/07/28 07:36:23;;;;;;;8.98;5.88;;;;;;;20.14;73.59;100839.78;5063933;28;20039;-83
2021/07/28 07:38:49;;;;;;;6.55;5.10;;;;;;;19.95;76.82;100841.47;5074084;28;20085;-82
2021/07/28 07:41:15;;;;;;;6.80;5.30;;;;;;;20.06;75.35;100837.38;5079985;28;20031;-82
2021/07/28 07:43:41;;;;;;;10.23;5.47;;;;;;;20.26;74.13;100833.84;5063834;28;20508;-82
2021/07/28 07:46:07;;;;;;;6.15;4.50;;;;;;;20.48;73.26;100853.84;5065827;28;20079;-83
2021/07/28 07:48:33;;;;;;;6.40;4.70;;;;;;;20.60;72.98;100854.88;5060062;28;20627;-83
2021/07/28 07:50:59;;;;;;;9.45;5.60;;;;;;;20.66;72.77;100847.06;5070114;28;20065;-83
2021/07/28 07:53:24;;;;;;;8.73;5.43;;;;;;;20.56;73.28;100855.47;5098760;28;20028;-83
2021/07/28 07:55:50;;;;;;;6.65;4.90;;;;;;;20.44;72.92;100844.66;5080945;28;20066;-82
2021/07/28 07:58:16;;;;;;;6.85;5.10;;;;;;;20.30;74.00;100843.03;5080643;28;20063;-81
2021/07/28 08:00:41;;;;;;;5.22;4.70;;;;;;;20.24;73.82;100850.00;5063943;28;20032;-83
2021/07/28 08:03:07;;;;;;;5.53;4.93;;;;;;;20.17;75.44;100841.22;5098140;28;20038;-83
2021/07/28 08:05:32;;;;;;;8.20;5.03;;;;;;;20.14;74.04;100842.47;5063173;28;20035;-83
2021/07/28 08:07:58;;;;;;;5.90;4.50;;;;;;;20.18;74.36;100840.19;5063824;28;20424;-84
2021/07/28 08:10:24;;;;;;;9.60;5.50;;;;;;;20.38;73.43;100835.66;5081272;28;20055;-84
2021/07/28 08:12:49;;;;;;;6.15;4.85;;;;;;;20.26;73.48;100844.50;5080069;28;20051;-84
2021/07/28 08:15:15;;;;;;;10.88;5.60;;;;;;;20.05;73.12;100846.34;5056132;28;20048;-82
2021/07/28 08:17:40;;;;;;;9.98;4.80;;;;;;;20.13;73.73;100845.31;5074894;28;20493;-84
2021/07/28 08:20:24;;;;;;;7.35;4.85;;;;;;;20.52;71.79;100844.41;5101546;28;20503;-82
2021/07/28 08:22:50;;;;;;;8.70;5.20;;;;;;;20.52;71.18;100844.41;5065125;28;20027;-82
2021/07/28 08:25:16;;;;;;;6.53;4.55;;;;;;;20.56;71.73;100839.50;5064877;28;20067;-83
2021/07/28 08:27:41;;;;;;;8.85;5.00;;;;;;;20.59;71.77;100839.88;5061861;28;20119;-83
2021/07/28 08:30:07;;;;;;;5.50;4.53;;;;;;;20.64;71.11;100838.47;5061411;28;20051;-83
2021/07/28 08:32:33;;;;;;;8.10;5.10;;;;;;;20.74;71.66;100841.53;5060495;28;20028;-81
2021/07/28 08:35:18;;;;;;;6.38;4.20;;;;;;;20.77;71.39;100836.56;5087463;28;20509;-83
2021/07/28 08:37:44;;;;;;;7.07;4.82;;;;;;;20.84;70.64;100841.88;5063113;28;20043;-84
2021/07/28 08:40:13;;;;;;;10.18;4.80;;;;;;;20.94;70.40;100855.56;5096753;28;20036;-84
2021/07/28 08:42:41;;;;;;;6.07;4.57;;;;;;;21.12;70.40;100852.19;5096955;28;20046;-83
2021/07/28 08:45:08;;;;;;;5.85;4.63;;;;;;;21.14;69.05;100852.78;5079096;28;20454;-86
2021/07/28 08:47:35;;;;;;;5.97;4.63;;;;;;;21.33;69.83;100850.22;5069803;28;20422;-84
2021/07/28 08:50:09;;;;;;;7.05;4.65;;;;;;;21.69;68.18;100846.09;5092878;28;20035;-85
2021/07/28 08:52:35;;;;;;;8.25;5.20;;;;;;;22.06;65.37;100849.69;5074434;28;20038;-84
2021/07/28 08:55:02;;;;;;;6.90;4.13;;;;;;;22.02;66.99;100842.31;5063344;28;20484;-83
2021/07/28 08:57:31;;;;;;;5.38;4.03;;;;;;;22.31;66.18;100848.84;5094320;28;20486;-83
2021/07/28 08:59:57;;;;;;;5.55;4.03;;;;;;;22.44;65.25;100837.22;5076287;28;20397;-82
2021/07/28 09:02:23;;;;;;;5.95;3.88;;;;;;;22.61;66.74;100851.59;5087131;28;20095;-82
2021/07/28 09:04:48;;;;;;;7.15;4.30;;;;;;;22.25;64.72;100850.56;5079892;28;20047;-81
2021/07/28 09:07:15;;;;;;;6.55;3.90;;;;;;;21.96;64.48;100844.84;5066740;28;20139;-84
2021/07/28 09:09:57;;;;;;;7.03;4.15;;;;;;;22.09;63.60;100854.56;5076194;28;20124;-84
2021/07/28 09:12:35;;;;;;;7.68;4.45;;;;;;;22.37;65.19;100850.63;5060431;28;20040;-83
2021/07/28 09:15:08;;;;;;;6.68;4.30;;;;;;;22.78;62.60;100853.69;5086647;28;20036;-83
2021/07/28 09:17:37;;;;;;;;;;;;;;;23.32;65.01;100855.44;5096569;28;20543;-85
2021/07/28 09:20:04;;;;;;;6.32;3.80;;;;;;;23.53;60.39;100853.28;5051649;28;19959;-84
2021/07/28 09:22:41;;;;;;;6.45;4.13;;;;;;;23.20;61.83;100854.56;5097038;28;20035;-84
2021/07/28 09:25:33;;;;;;;5.18;3.25;;;;;;;23.07;59.96;100852.06;5074672;28;20023;-84
2021/07/28 09:27:59;;;;;;;6.20;3.83;;;;;;;22.87;58.85;100853.13;5096341;28;20051;-84
2021/07/28 09:30:24;;;;;;;5.30;3.80;;;;;;;22.80;60.65;100849.72;5085262;28;20042;-84
2021/07/28 09:33:17;;;;;;;4.90;3.78;;;;;;;22.70;59.99;100846.78;5062521;28;20067;-84
2021/07/28 09:35:52;;;;;;;4.38;3.30;;;;;;;22.53;60.77;100849.25;5077284;28;20047;-84
2021/07/28 09:38:30;;;;;;;3.95;3.42;;;;;;;22.14;61.99;100825.34;5068080;28;20037;-86
2021/07/28 09:41:18;;;;;;;6.40;3.88;;;;;;;22.08;64.15;100831.59;5043530;28;20124;-83
2021/07/28 09:43:46;;;;;;;4.35;3.70;;;;;;;21.96;64.44;100836.00;5076872;28;20042;-84
2021/07/28 09:46:38;;;;;;;5.20;3.83;;;;;;;22.06;64.05;100836.34;5079657;28;20043;-85
2021/07/28 09:49:09;;;;;;;;;;;;;;;22.47;62.16;100829.56;5073491;28;20154;-84
2021/07/28 09:51:42;;;;;;;6.03;3.50;;;;;;;22.97;61.08;100828.53;5043014;28;19919;-83
2021/07/28 09:54:09;;;;;;;4.65;3.60;;;;;;;23.07;61.64;100828.00;5058737;28;20481;-84
2021/07/28 09:56:46;;;;;;;6.03;3.60;;;;;;;23.31;58.99;100823.53;5076421;28;20036;-84
2021/07/28 09:59:12;;;;;;;4.22;3.45;;;;;;;23.47;56.88;100828.25;5075884;28;20070;-83
2021/07/28 10:01:37;;;;;;;5.32;3.40;;;;;;;23.77;59.46;100819.31;5078662;28;20044;-82
2021/07/28 10:04:28;;;;;;;3.83;3.42;;;;;;;23.33;57.84;100824.13;5099765;28;20028;-82
2021/07/28 10:06:54;;;;;;;4.22;3.50;;;;;;;23.53;58.76;100815.78;5071320;28;20099;-84
2021/07/28 10:09:26;;;;;;;4.95;3.63;;;;;;;23.60;58.17;100821.03;5062520;28;20581;-85
2021/07/28 10:11:52;;;;;;;4.47;3.35;;;;;;;23.36;58.31;100817.50;5062208;28;20441;-86
2021/07/28 10:14:21;;;;;;;4.50;3.60;;;;;;;23.78;57.83;100818.25;5064311;28;20118;-84
2021/07/28 10:16:47;;;;;;;7.20;3.60;;;;;;;23.90;55.15;100815.59;5093988;28;20070;-85
2021/07/28 10:19:14;;;;;;;6.20;4.00;;;;;;;24.17;55.99;100823.97;5060353;28;20108;-83
2021/07/28 10:21:40;;;;;;;4.18;3.25;;;;;;;24.26;55.55;100819.06;5094385;28;20031;-86
2021/07/28 10:24:06;;;;;;;6.93;3.35;;;;;;;24.59;53.81;100829.16;5095450;28;20061;-83
2021/07/28 10:26:45;;;;;;;5.15;3.30;;;;;;;24.27;52.82;100824.19;5062924;28;20485;-85
2021/07/28 10:29:14;;;;;;;7.28;3.10;;;;;;;24.21;52.01;100830.50;5076359;28;20108;-85
2021/07/28 10:31:58;;;;;;;4.53;3.03;;;;;;;24.01;54.53;100827.38;5041301;28;20048;-85
2021/07/28 10:34:26;;;;;;;4.43;3.05;;;;;;;23.79;56.86;100827.13;5075949;28;20024;-86
2021/07/28 10:36:53;;;;;;;6.82;3.05;;;;;;;23.55;57.19;100818.25;5057019;28;20036;-84
2021/07/28 10:39:33;;;;;;;4.03;3.58;;;;;;;23.40;55.63;100808.78;5079424;28;20035;-87
2021/07/28 10:41:59;;;;;;;4.00;3.22;;;;;;;23.26;55.20;100813.53;5098160;28;20105;-84
2021/07/28 10:44:24;;;;;;;5.13;3.10;;;;;;;23.16;55.54;100812.44;5080647;28;20048;-86
2021/07/28 10:46:53;;;;;;;7.57;3.20;;;;;;;23.19;56.46;100807.47;5081248;28;20032;-85
2021/07/28 10:49:38;;;;;;;4.28;2.97;;;;;;;23.12;55.18;100815.56;5064440;28;20061;-85
2021/07/28 10:52:05;;;;;;;5.00;2.95;;;;;;;23.26;57.94;100808.19;5062973;28;20524;-85
2021/07/28 10:54:50;;;;;;;4.95;2.92;;;;;;;23.44;57.86;100806.47;5080306;28;20045;-84
2021/07/28 10:57:45;;;;;;;5.22;3.38;;;;;;;23.39;55.56;100811.69;5063822;28;20049;-84
2021/07/28 11:00:12;;;;;;;6.00;3.40;;;;;;;23.38;55.79;100804.72;5044181;28;20035;-81
2021/07/28 11:02:57;;;;;;;3.50;3.20;;;;;;;23.41;57.90;100798.88;5090028;28;20031;-84
2021/07/28 11:05:24;;;;;;;7.28;3.22;;;;;;;23.59;56.27;100803.34;5064061;28;20062;-83
2021/07/28 11:08:02;;;;;;;4.10;3.10;;;;;;;23.93;56.25;100804.44;5083094;28;20123;-85
2021/07/28 11:10:31;;;;;;;4.13;3.38;;;;;;;24.22;55.55;100805.34;5083184;28;20059;-82
2021/07/28 11:12:58;;;;;;;6.20;3.70;;;;;;;24.14;55.81;100797.66;5052550;28;20028;-83
2021/07/28 11:15:24;;;;;;;5.07;3.58;;;;;;;24.04;57.25;100790.22;5085378;28;20084;-82
2021/07/28 11:17:54;;;;;;;5.78;3.80;;;;;;;23.87;56.92;100791.97;5080843;28;20066;-83
2021/07/28 11:20:35;;;;;;;4.53;3.17;;;;;;;23.45;58.29;100784.00;5063267;28;20066;-83
2021/07/28 11:23:33;;;;;;;4.35;3.60;;;;;;;23.74;57.36;100773.44;5080669;28;20046;-85
2021/07/28 11:26:00;;;;;;;3.80;3.38;;;;;;;24.39;56.69;100775.94;5064554;28;20031;-84
2021/07/28 11:28:27;;;;;;;4.07;3.13;;;;;;;24.80;54.64;100779.41;5063924;28;20032;-85